Time;durP1;ratioP1;P1;durP2;ratioP2;P2;SDS_P1;SDS_P2;PMS_P1;PMS_P2;Temp;Humidity;BMP_temperature;BMP_pressure;BME280_temperature;BME280_humidity;BME280_pressure;Samples;Min_cycle;Max_cycle;Signal;HPM_P1;HPM_P2
2021/10/05 00:00:55;;;;;;;;;;;23.60;46.60;;;;;;1612027;73;807;-70
2021/10/05 00:02:56;;;;;;;;;;;23.50;46.50;;;;;;1624452;72;1106;-69
2021/10/05 00:04:58;;;;;;;;;;;23.60;46.50;;;;;;1624349;73;720;-70
2021/10/05 00:07:00;;;;;;;;;;;23.60;46.50;;;;;;1606260;73;782;-71
2021/10/05 00:09:02;;;;;;;;;;;23.50;46.50;;;;;;1624906;73;699;-70
2021/10/05 00:11:04;;;;;;;;;;;23.50;46.50;;;;;;1627268;73;655;-70
2021/10/05 00:13:06;;;;;;;;;;;23.60;46.50;;;;;;1627407;73;1127;-71
2021/10/05 00:15:08;;;;;;;;;;;23.50;46.50;;;;;;1627221;73;1925;-70
2021/10/05 00:17:10;;;;;;;;;;;23.50;46.50;;;;;;1626554;73;750;-69
2021/10/05 00:19:12;;;;;;;;;;;23.50;46.50;;;;;;1624564;73;648;-69
2021/10/05 00:21:14;;;;;;;;;;;23.50;46.50;;;;;;1624367;73;707;-70
2021/10/05 00:23:15;;;;;;;;;;;23.50;46.50;;;;;;1624521;72;1149;-70
2021/10/05 00:25:17;;;;;;;;;;;23.50;46.50;;;;;;1624681;73;722;-69
2021/10/05 00:27:19;;;;;;;;;;;23.50;46.50;;;;;;1602284;73;719;-69
2021/10/05 00:29:21;;;;;;;;;;;23.50;46.50;;;;;;1620630;73;686;-69
2021/10/05 00:31:23;;;;;;;;;;;23.50;46.60;;;;;;1624542;73;769;-70
2021/10/05 00:33:25;;;;;;;;;;;23.50;46.60;;;;;;1624392;72;1133;-69
2021/10/05 00:35:28;;;;;;;;;;;23.50;46.60;;;;;;1624490;73;1933;-70
2021/10/05 00:37:30;;;;;;;;;;;23.50;46.50;;;;;;1623872;73;700;-70
2021/10/05 00:39:32;;;;;;;;;;;23.50;46.60;;;;;;1624498;73;731;-71
2021/10/05 00:41:34;;;;;;;;;;;23.50;46.60;;;;;;1624418;73;770;-71
2021/10/05 00:43:36;;;;;;;;;;;23.50;46.70;;;;;;1624196;72;1190;-69
2021/10/05 00:45:38;;;;;;;;;;;23.40;46.60;;;;;;1619778;73;737;-69
2021/10/05 00:47:40;;;;;;;;;;;23.50;46.80;;;;;;1624250;73;709;-70
2021/10/05 00:49:42;;;;;;;;;;;23.50;46.80;;;;;;1625795;73;775;-69
2021/10/05 00:51:44;;;;;;;;;;;23.50;46.80;;;;;;1625488;73;712;-69
2021/10/05 00:53:46;;;;;;;;;;;23.40;46.70;;;;;;1623564;72;1951;-69
2021/10/05 00:55:48;;;;;;;;;;;23.40;46.70;;;;;;1620904;73;712;-70
2021/10/05 00:57:51;;;;;;;;;;;23.40;46.60;;;;;;1623943;73;759;-70
2021/10/05 00:59:54;;;;;;;;;;;23.40;46.60;;;;;;1623734;73;979;-70
2021/10/05 01:01:56;;;;;;;;;;;23.40;46.70;;;;;;1625414;73;757;-70
2021/10/05 01:03:58;;;;;;;;;;;23.40;46.70;;;;;;1610458;72;221072;-73
2021/10/05 01:06:00;;;;;;;;;;;23.40;46.70;;;;;;1586298;74;1208;-73
2021/10/05 01:08:02;;;;;;;;;;;23.40;46.80;;;;;;1605365;73;1204;-75
2021/10/05 01:10:04;;;;;;;;;;;23.50;46.80;;;;;;1590662;73;727;-76
2021/10/05 01:12:06;;;;;;;;;;;23.50;46.80;;;;;;1592994;73;684;-74
2021/10/05 01:14:08;;;;;;;;;;;23.50;46.80;;;;;;1598025;73;1931;-73
2021/10/05 01:16:09;;;;;;;;;;;23.40;46.70;;;;;;1597737;73;716;-74
2021/10/05 01:18:11;;;;;;;;;;;23.50;46.80;;;;;;1605288;73;225233;-58
2021/10/05 01:20:13;;;;;;;;;;;23.50;46.80;;;;;;1614388;73;609;-57
2021/10/05 01:22:15;;;;;;;;;;;23.40;46.70;;;;;;1604712;73;805;-58
2021/10/05 01:24:18;;;;;;;;;;;23.40;46.70;;;;;;1607995;72;1179;-58
2021/10/05 01:26:20;;;;;;;;;;;23.40;46.60;;;;;;1592782;73;759;-58
2021/10/05 01:28:23;;;;;;;;;;;23.50;46.70;;;;;;1602083;73;680;-59
2021/10/05 01:30:25;;;;;;;;;;;23.40;46.60;;;;;;1592293;73;759;-59
2021/10/05 01:32:27;;;;;;;;;;;23.50;46.80;;;;;;1587825;73;866;-56
2021/10/05 01:34:28;;;;;;;;;;;23.50;46.80;;;;;;1555774;75;1963;-57
2021/10/05 01:36:30;;;;;;;;;;;23.40;46.70;;;;;;1603667;73;711;-58
2021/10/05 01:38:32;;;;;;;;;;;23.50;46.80;;;;;;1597373;73;734;-56
2021/10/05 01:40:34;;;;;;;;;;;23.40;46.70;;;;;;1597666;73;744;-59
2021/10/05 01:42:36;;;;;;;;;;;23.40;46.70;;;;;;1604071;73;688;-56
2021/10/05 01:44:38;;;;;;;;;;;23.40;46.70;;;;;;1599626;72;1133;-59
2021/10/05 01:46:40;;;;;;;;;;;23.40;46.70;;;;;;1607214;73;786;-58
2021/10/05 01:48:42;;;;;;;;;;;23.40;46.60;;;;;;1597819;73;787;-58
2021/10/05 01:50:44;;;;;;;;;;;23.40;46.70;;;;;;1601446;73;784;-58
2021/10/05 01:52:46;;;;;;;;;;;23.40;46.60;;;;;;1608797;73;789;-57
2021/10/05 01:54:47;;;;;;;;;;;23.40;46.70;;;;;;1591055;72;1944;-57
2021/10/05 01:56:49;;;;;;;;;;;23.40;46.70;;;;;;1588418;73;713;-55
2021/10/05 01:58:51;;;;;;;;;;;23.40;46.70;;;;;;1587882;73;731;-59
2021/10/05 02:00:53;;;;;;;;;;;23.40;46.80;;;;;;1599686;73;710;-58
2021/10/05 02:02:55;;;;;;;;;;;23.40;46.70;;;;;;1596405;73;639;-58
2021/10/05 02:04:57;;;;;;;;;;;23.40;46.70;;;;;;1601109;73;1169;-59
2021/10/05 02:06:59;;;;;;;;;;;23.40;46.70;;;;;;1590221;73;773;-58
2021/10/05 02:09:00;;;;;;;;;;;23.40;46.70;;;;;;1595923;73;734;-59
2021/10/05 02:11:02;;;;;;;;;;;23.40;46.80;;;;;;1581278;73;742;-57
2021/10/05 02:13:06;;;;;;;;;;;23.40;46.80;;;;;;1594008;73;752;-57
2021/10/05 02:15:08;;;;;;;;;;;23.40;46.70;;;;;;1600956;72;1915;-60
2021/10/05 02:17:10;;;;;;;;;;;23.40;46.70;;;;;;1600356;73;791;-60
2021/10/05 02:19:12;;;;;;;;;;;23.40;46.80;;;;;;1596735;73;710;-59
2021/10/05 02:21:14;;;;;;;;;;;23.40;46.80;;;;;;1586425;73;795;-59
2021/10/05 02:23:16;;;;;;;;;;;23.40;46.80;;;;;;1600189;73;734;-60
2021/10/05 02:25:19;;;;;;;;;;;23.40;46.80;;;;;;1577192;74;1144;-59
2021/10/05 02:27:21;;;;;;;;;;;23.40;46.90;;;;;;1571631;75;776;-58
2021/10/05 02:29:23;;;;;;;;;;;23.40;46.90;;;;;;1584858;73;718;-60
2021/10/05 02:31:25;;;;;;;;;;;23.40;46.90;;;;;;1602751;73;731;-58
2021/10/05 02:33:27;;;;;;;;;;;23.40;46.90;;;;;;1598263;73;744;-58
2021/10/05 02:35:29;;;;;;;;;;;23.40;46.80;;;;;;1584092;73;1947;-59
2021/10/05 02:37:31;;;;;;;;;;;23.40;46.80;;;;;;1570874;73;733;-58
2021/10/05 02:39:33;;;;;;;;;;;23.50;47.00;;;;;;1582422;73;768;-59
2021/10/05 02:41:35;;;;;;;;;;;23.40;46.80;;;;;;1581486;74;858;-59
2021/10/05 02:43:37;;;;;;;;;;;23.50;46.80;;;;;;1583004;75;765;-59
2021/10/05 02:45:39;;;;;;;;;;;23.50;46.70;;;;;;1569506;74;1082;-59
2021/10/05 02:47:41;;;;;;;;;;;23.70;46.70;;;;;;1562176;73;710;-59
2021/10/05 02:49:46;;;;;;;;;;;23.70;46.40;;;;;;1562616;75;716;-57
2021/10/05 02:51:47;;;;;;;;;;;23.80;46.10;;;;;;1562515;76;934;-57
2021/10/05 02:53:49;;;;;;;;;;;23.90;46.00;;;;;;1565619;74;1138;-56
2021/10/05 02:55:51;;;;;;;;;;;23.90;45.80;;;;;;1566317;73;1940;-57
2021/10/05 02:57:53;;;;;;;;;;;23.90;45.90;;;;;;1563575;73;783;-57
2021/10/05 02:59:55;;;;;;;;;;;23.80;46.00;;;;;;1562499;76;780;-57
2021/10/05 03:01:57;;;;;;;;;;;23.70;46.10;;;;;;1562480;76;671;-59
2021/10/05 03:03:59;;;;;;;;;;;23.70;46.30;;;;;;1562476;75;1136;-59
2021/10/05 03:06:01;;;;;;;;;;;23.60;46.30;;;;;;1563879;73;714;-59
2021/10/05 03:08:06;;;;;;;;;;;23.60;46.30;;;;;;1562757;76;703;-59
2021/10/05 03:10:09;;;;;;;;;;;23.50;46.40;;;;;;1563577;75;735;-56
2021/10/05 03:12:11;;;;;;;;;;;23.50;46.50;;;;;;1592500;75;772;-57
2021/10/05 03:14:13;;;;;;;;;;;23.50;46.50;;;;;;1592599;74;1086;-58
2021/10/05 03:16:14;;;;;;;;;;;23.50;46.60;;;;;;1574419;73;1949;-58
2021/10/05 03:18:16;;;;;;;;;;;23.50;46.60;;;;;;1565737;73;775;-57
2021/10/05 03:20:18;;;;;;;;;;;23.50;46.60;;;;;;1562678;76;796;-59
2021/10/05 03:22:20;;;;;;;;;;;23.50;46.70;;;;;;1562194;76;788;-59
2021/10/05 03:24:22;;;;;;;;;;;23.50;46.70;;;;;;1562715;75;1116;-58
2021/10/05 03:26:24;;;;;;;;;;;23.50;46.70;;;;;;1563144;73;723;-60
2021/10/05 03:28:26;;;;;;;;;;;23.50;46.80;;;;;;1586115;75;760;-60
2021/10/05 03:30:27;;;;;;;;;;;23.50;46.80;;;;;;1589818;75;633;-56
2021/10/05 03:32:29;;;;;;;;;;;23.50;46.80;;;;;;1589258;75;794;-57
2021/10/05 03:34:31;;;;;;;;;;;23.40;46.70;;;;;;1589800;75;1120;-59
2021/10/05 03:36:33;;;;;;;;;;;23.50;46.80;;;;;;1571143;73;1959;-58
2021/10/05 03:38:35;;;;;;;;;;;23.40;46.60;;;;;;1562495;76;730;-56
2021/10/05 03:40:37;;;;;;;;;;;23.50;46.70;;;;;;1562616;76;707;-59
2021/10/05 03:42:39;;;;;;;;;;;23.50;46.70;;;;;;1562640;76;711;-58
2021/10/05 03:44:41;;;;;;;;;;;23.50;46.70;;;;;;1565612;73;1139;-57
2021/10/05 03:46:42;;;;;;;;;;;23.50;46.60;;;;;;1570761;76;693;-57
2021/10/05 03:48:44;;;;;;;;;;;23.50;46.60;;;;;;1570810;76;690;-57
2021/10/05 03:50:46;;;;;;;;;;;23.50;46.70;;;;;;1570271;76;671;-59
2021/10/05 03:52:48;;;;;;;;;;;23.50;46.70;;;;;;1571109;73;785;-59
2021/10/05 03:54:50;;;;;;;;;;;23.50;46.60;;;;;;1563648;73;1946;-57
2021/10/05 03:56:52;;;;;;;;;;;23.50;46.60;;;;;;1562388;76;725;-59
2021/10/05 03:58:54;;;;;;;;;;;23.50;46.60;;;;;;1562609;76;712;-59
2021/10/05 04:00:55;;;;;;;;;;;23.50;46.60;;;;;;1562549;76;619;-56
2021/10/05 04:02:58;;;;;;;;;;;23.50;46.50;;;;;;1563033;73;640;-55
2021/10/05 04:05:00;;;;;;;;;;;23.50;46.60;;;;;;1563012;75;1155;-59
2021/10/05 04:07:02;;;;;;;;;;;23.50;46.50;;;;;;1562468;76;714;-59
2021/10/05 04:09:06;;;;;;;;;;;23.50;46.50;;;;;;1562693;76;661;-58
2021/10/05 04:11:08;;;;;;;;;;;23.60;46.50;;;;;;1562818;76;722;-59
2021/10/05 04:13:10;;;;;;;;;;;23.60;46.40;;;;;;1564046;73;773;-58
2021/10/05 04:15:12;;;;;;;;;;;23.70;46.20;;;;;;1562832;75;1950;-57
2021/10/05 04:17:14;;;;;;;;;;;23.90;45.90;;;;;;1565964;74;789;-59
2021/10/05 04:19:16;;;;;;;;;;;23.90;45.70;;;;;;1567398;76;751;-58
2021/10/05 04:21:18;;;;;;;;;;;24.00;45.40;;;;;;1567734;76;715;-58
2021/10/05 04:23:20;;;;;;;;;;;24.10;45.50;;;;;;1563720;73;734;-60
2021/10/05 04:25:22;;;;;;;;;;;24.00;45.50;;;;;;1562707;75;1143;-59
2021/10/05 04:27:24;;;;;;;;;;;24.00;45.50;;;;;;1572128;73;732;-59
2021/10/05 04:29:26;;;;;;;;;;;24.00;45.50;;;;;;1593220;73;726;-58
2021/10/05 04:31:28;;;;;;;;;;;24.00;45.40;;;;;;1594419;73;758;-56
2021/10/05 04:33:30;;;;;;;;;;;24.20;45.30;;;;;;1594218;73;721;-58
2021/10/05 04:35:32;;;;;;;;;;;24.30;45.30;;;;;;1588520;73;1937;-58
2021/10/05 04:37:34;;;;;;;;;;;24.30;45.20;;;;;;1600763;73;735;-57
2021/10/05 04:39:36;;;;;;;;;;;24.30;45.10;;;;;;1596120;73;784;-59
2021/10/05 04:41:37;;;;;;;;;;;24.20;45.00;;;;;;1594905;73;727;-59
2021/10/05 04:43:39;;;;;;;;;;;24.20;45.10;;;;;;1604644;73;769;-59
2021/10/05 04:45:41;;;;;;;;;;;24.30;45.10;;;;;;1598354;73;1094;-59
2021/10/05 04:47:43;;;;;;;;;;;24.20;45.00;;;;;;1597635;73;910;-60
2021/10/05 04:49:45;;;;;;;;;;;24.30;45.10;;;;;;1594283;73;727;-59
2021/10/05 04:51:47;;;;;;;;;;;24.20;45.00;;;;;;1599635;73;703;-56
2021/10/05 04:53:49;;;;;;;;;;;24.30;45.20;;;;;;1604989;73;1127;-58
2021/10/05 04:55:51;;;;;;;;;;;24.20;45.20;;;;;;1590903;73;1935;-57
2021/10/05 04:57:52;;;;;;;;;;;24.10;45.30;;;;;;1593593;73;734;-60
2021/10/05 04:59:54;;;;;;;;;;;24.10;45.30;;;;;;1577287;74;736;-59
2021/10/05 05:01:56;;;;;;;;;;;24.10;45.30;;;;;;1597915;73;728;-58
2021/10/05 05:03:58;;;;;;;;;;;24.00;45.60;;;;;;1578069;74;1256;-58
2021/10/05 05:06:00;;;;;;;;;;;24.20;45.40;;;;;;1564915;74;727;-58
2021/10/05 05:08:02;;;;;;;;;;;24.20;45.30;;;;;;1563071;73;730;-57
2021/10/05 05:10:04;;;;;;;;;;;24.10;45.20;;;;;;1562645;73;789;-59
2021/10/05 05:12:07;;;;;;;;;;;24.10;45.20;;;;;;1564584;73;703;-59
2021/10/05 05:14:10;;;;;;;;;;;24.00;45.20;;;;;;1579272;73;1181;-59
2021/10/05 05:16:12;;;;;;;;;;;24.00;45.30;;;;;;1582083;74;1949;-57
2021/10/05 05:18:14;;;;;;;;;;;24.00;45.40;;;;;;1590418;74;928;-57
2021/10/05 05:20:16;;;;;;;;;;;23.90;45.30;;;;;;1597669;74;790;-60
2021/10/05 05:22:18;;;;;;;;;;;23.90;45.40;;;;;;1585318;73;726;-57
2021/10/05 05:24:20;;;;;;;;;;;23.90;45.40;;;;;;1589915;73;1106;-59
2021/10/05 05:26:22;;;;;;;;;;;23.90;45.40;;;;;;1597402;74;756;-58
2021/10/05 05:28:23;;;;;;;;;;;23.90;45.40;;;;;;1580747;73;707;-58
2021/10/05 05:30:25;;;;;;;;;;;23.90;45.50;;;;;;1593972;74;637;-58
2021/10/05 05:32:27;;;;;;;;;;;23.90;45.50;;;;;;1601116;74;750;-58
2021/10/05 05:34:29;;;;;;;;;;;23.90;45.50;;;;;;1589466;73;1137;-58
2021/10/05 05:36:31;;;;;;;;;;;23.80;45.40;;;;;;1588829;74;1935;-59
2021/10/05 05:38:33;;;;;;;;;;;23.80;45.50;;;;;;1599088;73;782;-58
2021/10/05 05:40:35;;;;;;;;;;;23.80;45.50;;;;;;1602525;73;754;-57
2021/10/05 05:42:37;;;;;;;;;;;23.80;45.60;;;;;;1589458;73;700;-58
2021/10/05 05:44:39;;;;;;;;;;;23.80;45.50;;;;;;1593762;73;1211;-58
2021/10/05 05:46:41;;;;;;;;;;;23.70;45.50;;;;;;1570749;73;569;-59
2021/10/05 05:48:43;;;;;;;;;;;23.80;45.60;;;;;;1566189;75;736;-59
2021/10/05 05:50:45;;;;;;;;;;;23.80;45.60;;;;;;1567193;76;783;-58
2021/10/05 05:52:47;;;;;;;;;;;23.80;45.50;;;;;;1567415;76;679;-56
2021/10/05 05:54:49;;;;;;;;;;;23.80;45.60;;;;;;1567671;76;1118;-57
2021/10/05 05:56:50;;;;;;;;;;;23.70;45.60;;;;;;1566435;73;1914;-57
2021/10/05 05:58:55;;;;;;;;;;;23.70;45.60;;;;;;1562717;76;739;-59
2021/10/05 06:00:56;;;;;;;;;;;23.70;45.60;;;;;;1562418;76;1717;-58
2021/10/05 06:02:58;;;;;;;;;;;23.70;45.60;;;;;;1562289;76;775;-58
2021/10/05 06:05:00;;;;;;;;;;;23.70;45.70;;;;;;1563187;73;1178;-59
2021/10/05 06:07:01;;;;;;;;;;;23.70;45.70;;;;;;1563668;73;663;-57
2021/10/05 06:09:04;;;;;;;;;;;23.80;45.70;;;;;;1582800;73;702;-56
2021/10/05 06:11:05;;;;;;;;;;;23.70;45.70;;;;;;1579435;73;750;-56
2021/10/05 06:13:07;;;;;;;;;;;23.70;45.70;;;;;;1568749;75;722;-56
2021/10/05 06:15:10;;;;;;;;;;;23.70;45.70;;;;;;1567344;76;1152;-58
2021/10/05 06:17:12;;;;;;;;;;;23.70;45.70;;;;;;1567550;74;1926;-57
2021/10/05 06:19:16;;;;;;;;;;;23.70;45.70;;;;;;1582042;73;818;-57
2021/10/05 06:21:17;;;;;;;;;;;23.70;45.70;;;;;;1589712;75;652;-59
2021/10/05 06:23:19;;;;;;;;;;;23.70;45.70;;;;;;1589668;75;736;-60
2021/10/05 06:25:25;;;;;;;;;;;23.70;45.70;;;;;;1570521;73;1090;-59
2021/10/05 06:27:27;;;;;;;;;;;23.80;45.70;;;;;;1562813;76;697;-57
2021/10/05 06:29:29;;;;;;;;;;;23.70;45.60;;;;;;1562736;76;720;-57
2021/10/05 06:31:31;;;;;;;;;;;23.80;45.60;;;;;;1572070;75;800;-57
2021/10/05 06:33:33;;;;;;;;;;;23.80;45.50;;;;;;1563340;73;716;-59
2021/10/05 06:35:35;;;;;;;;;;;23.80;45.50;;;;;;1562787;75;1082;-58
2021/10/05 06:37:38;;;;;;;;;;;23.90;45.50;;;;;;1562278;76;1930;-59
2021/10/05 06:39:39;;;;;;;;;;;24.00;45.40;;;;;;1562700;76;717;-57
2021/10/05 06:41:41;;;;;;;;;;;24.00;45.30;;;;;;1563769;73;742;-56
2021/10/05 06:43:43;;;;;;;;;;;24.10;45.30;;;;;;1563601;73;662;-59
2021/10/05 06:45:45;;;;;;;;;;;24.00;45.10;;;;;;1577422;73;1096;-59
2021/10/05 06:47:47;;;;;;;;;;;24.10;45.20;;;;;;1605907;73;942;-59
2021/10/05 06:49:49;;;;;;;;;;;24.10;45.10;;;;;;1599797;73;618;-57
2021/10/05 06:51:51;;;;;;;;;;;24.10;45.10;;;;;;1601555;73;734;-59
2021/10/05 06:53:53;;;;;;;;;;;24.00;45.00;;;;;;1590376;73;1129;-57
2021/10/05 06:55:54;;;;;;;;;;;24.10;45.00;;;;;;1602276;73;779;-57
2021/10/05 06:57:57;;;;;;;;;;;24.10;45.10;;;;;;1594449;73;784;-56
2021/10/05 06:59:58;;;;;;;;;;;24.10;45.00;;;;;;1602395;73;773;-57
2021/10/05 07:02:00;;;;;;;;;;;24.10;45.10;;;;;;1585614;73;725;-59
2021/10/05 07:04:02;;;;;;;;;;;24.00;44.90;;;;;;1585206;73;222367;-66
2021/10/05 07:06:04;;;;;;;;;;;24.10;45.10;;;;;;1560312;76;697;-70
2021/10/05 07:08:06;;;;;;;;;;;24.00;45.00;;;;;;1561178;76;656;-69
2021/10/05 07:10:09;;;;;;;;;;;24.00;45.00;;;;;;1560883;76;714;-70
2021/10/05 07:12:10;;;;;;;;;;;24.00;45.00;;;;;;1559828;76;727;-70
2021/10/05 07:14:12;;;;;;;;;;;24.00;45.00;;;;;;1562168;76;1182;-68
2021/10/05 07:16:14;;;;;;;;;;;24.00;45.00;;;;;;1558491;76;1940;-70
2021/10/05 07:18:16;;;;;;;;;;;24.00;45.00;;;;;;1563777;75;708;-70
2021/10/05 07:20:18;;;;;;;;;;;24.00;45.10;;;;;;1552415;75;792;-69
2021/10/05 07:22:20;;;;;;;;;;;24.00;45.10;;;;;;1549686;76;787;-69
2021/10/05 07:24:22;;;;;;;;;;;24.00;45.10;;;;;;1535656;77;1119;-71
2021/10/05 07:26:24;;;;;;;;;;;23.90;45.10;;;;;;1536098;76;713;-70
2021/10/05 07:28:25;;;;;;;;;;;23.90;45.20;;;;;;1536136;77;786;-69
2021/10/05 07:30:28;;;;;;;;;;;23.90;45.20;;;;;;1565222;76;682;-70
2021/10/05 07:32:30;;;;;;;;;;;23.90;45.30;;;;;;1565610;76;766;-70
2021/10/05 07:34:32;;;;;;;;;;;23.90;45.20;;;;;;1565460;76;1122;-70
2021/10/05 07:36:34;;;;;;;;;;;23.80;45.20;;;;;;1565360;76;1921;-70
2021/10/05 07:38:36;;;;;;;;;;;23.90;45.40;;;;;;1565843;76;709;-70
2021/10/05 07:40:38;;;;;;;;;;;23.80;45.40;;;;;;1565505;76;656;-70
2021/10/05 07:42:40;;;;;;;;;;;23.90;45.40;;;;;;1565609;76;621;-69
2021/10/05 07:44:42;;;;;;;;;;;23.90;45.40;;;;;;1564392;76;1144;-71
2021/10/05 07:46:45;;;;;;;;;;;23.80;45.40;;;;;;1561003;76;703;-71
2021/10/05 07:48:47;;;;;;;;;;;23.70;45.50;;;;;;1560960;76;636;-69
2021/10/05 07:50:49;;;;;;;;;;;23.80;45.40;;;;;;1565532;74;792;-70
2021/10/05 07:52:51;;;;;;;;;;;23.80;45.50;;;;;;1565489;76;693;-70
2021/10/05 07:54:53;;;;;;;;;;;23.80;45.50;;;;;;1565539;75;1109;-71
2021/10/05 07:56:55;;;;;;;;;;;23.80;45.60;;;;;;1556600;75;1924;-69
2021/10/05 07:58:57;;;;;;;;;;;23.80;45.60;;;;;;1538087;76;681;-70
2021/10/05 08:00:58;;;;;;;;;;;23.80;45.50;;;;;;1565763;75;643;-70
2021/10/05 08:03:00;;;;;;;;;;;23.70;45.60;;;;;;1565628;75;648;-69
2021/10/05 08:05:02;;;;;;;;;;;23.80;45.60;;;;;;1565148;75;1099;-71
2021/10/05 08:07:04;;;;;;;;;;;23.80;45.60;;;;;;1543886;76;712;-69
2021/10/05 08:09:06;;;;;;;;;;;23.70;45.50;;;;;;1553402;75;709;-71
2021/10/05 08:11:08;;;;;;;;;;;23.80;45.60;;;;;;1565291;75;607;-70
2021/10/05 08:13:10;;;;;;;;;;;23.80;45.50;;;;;;1565519;75;699;-70
2021/10/05 08:15:12;;;;;;;;;;;23.90;45.60;;;;;;1550790;76;1232;-70
2021/10/05 08:17:14;;;;;;;;;;;23.90;45.50;;;;;;1565305;76;1923;-70
2021/10/05 08:19:15;;;;;;;;;;;24.00;45.50;;;;;;1538049;77;774;-70
2021/10/05 08:21:18;;;;;;;;;;;23.90;45.30;;;;;;1565500;75;803;-70
2021/10/05 08:23:20;;;;;;;;;;;24.00;45.20;;;;;;1537667;76;1152;-70
2021/10/05 08:25:22;;;;;;;;;;;24.10;45.20;;;;;;1565650;75;764;-70
2021/10/05 08:27:24;;;;;;;;;;;24.10;45.00;;;;;;1565256;74;778;-69
2021/10/05 08:29:25;;;;;;;;;;;24.20;44.90;;;;;;1563083;75;860;-70
2021/10/05 08:31:27;;;;;;;;;;;24.20;44.80;;;;;;1565089;75;766;-70
2021/10/05 08:33:29;;;;;;;;;;;24.20;44.70;;;;;;1564726;75;1136;-70
2021/10/05 08:35:31;;;;;;;;;;;24.20;44.70;;;;;;1565508;75;761;-70
2021/10/05 08:37:33;;;;;;;;;;;24.20;44.70;;;;;;1564589;76;1932;-71
2021/10/05 08:39:35;;;;;;;;;;;24.20;44.70;;;;;;1555905;76;764;-71
2021/10/05 08:41:38;;;;;;;;;;;24.10;44.80;;;;;;1565479;75;736;-71
2021/10/05 08:43:42;;;;;;;;;;;24.10;44.80;;;;;;1560034;75;1676;-71
2021/10/05 08:45:43;;;;;;;;;;;24.00;44.70;;;;;;1564982;75;733;-71
2021/10/05 08:47:45;;;;;;;;;;;24.00;44.90;;;;;;1564860;74;777;-72
2021/10/05 08:49:47;;;;;;;;;;;23.90;45.10;;;;;;1565064;75;745;-72
2021/10/05 08:51:49;;;;;;;;;;;23.90;45.10;;;;;;1537592;77;687;-70
2021/10/05 08:53:51;;;;;;;;;;;23.90;45.20;;;;;;1565475;75;1121;-70
2021/10/05 08:55:53;;;;;;;;;;;23.90;45.30;;;;;;1533881;76;726;-71
2021/10/05 08:57:55;;;;;;;;;;;23.90;45.20;;;;;;1565452;75;1944;-71
2021/10/05 08:59:58;;;;;;;;;;;23.90;45.20;;;;;;1538226;76;741;-71
2021/10/05 09:02:00;;;;;;;;;;;24.00;45.10;;;;;;1564710;75;665;-70
2021/10/05 09:04:03;;;;;;;;;;;24.00;45.10;;;;;;1525990;76;1118;-71
2021/10/05 09:06:11;;;;;;;;;;;24.00;45.00;;;;;;1517043;76;783;-71
2021/10/05 09:08:14;;;;;;;;;;;24.20;44.90;;;;;;1534443;77;813;-71
2021/10/05 09:10:18;;;;;;;;;;;24.20;44.70;;;;;;1563814;75;1105;-68
2021/10/05 09:12:23;;;;;;;;;;;24.30;44.70;;;;;;1562269;74;733;-71
2021/10/05 09:14:25;;;;;;;;;;;24.30;44.50;;;;;;1552790;76;1153;-71
2021/10/05 09:16:27;;;;;;;;;;;24.40;44.40;;;;;;1500374;77;1136;-71
2021/10/05 09:18:29;;;;;;;;;;;24.40;44.30;;;;;;1551402;75;1934;-71
2021/10/05 09:20:34;;;;;;;;;;;24.40;44.20;;;;;;1559336;75;772;-71
2021/10/05 09:22:36;;;;;;;;;;;24.40;44.20;;;;;;1550162;75;651;-70
2021/10/05 09:24:38;;;;;;;;;;;24.40;44.10;;;;;;1565609;75;1114;-71
2021/10/05 09:26:41;;;;;;;;;;;24.40;44.20;;;;;;1564744;75;662;-71
2021/10/05 09:28:43;;;;;;;;;;;24.40;44.20;;;;;;1563924;75;749;-70
2021/10/05 09:30:46;;;;;;;;;;;24.30;44.20;;;;;;1565339;75;692;-71
2021/10/05 09:32:58;;;;;;;;;;;24.40;44.30;;;;;;1562505;75;1745;-70
2021/10/05 09:35:00;;;;;;;;;;;24.30;44.30;;;;;;1563374;75;1118;-71
2021/10/05 09:37:04;;;;;;;;;;;24.40;44.30;;;;;;1564700;75;1938;-70
2021/10/05 09:39:06;;;;;;;;;;;24.40;44.40;;;;;;1565534;75;781;-71
2021/10/05 09:41:09;;;;;;;;;;;24.30;44.40;;;;;;1565459;75;728;-70
2021/10/05 09:43:21;;;;;;;;;;;24.30;44.40;;;;;;1564654;75;728;-71
2021/10/05 09:45:27;;;;;;;;;;;24.40;44.40;;;;;;1564599;76;711;-71
2021/10/05 09:47:39;;;;;;;;;;;24.30;44.50;;;;;;1553720;76;1155;-71
2021/10/05 09:49:44;;;;;;;;;;;24.30;44.50;;;;;;1535197;76;661;-70
2021/10/05 09:51:48;;;;;;;;;;;24.30;44.50;;;;;;1536003;77;736;-70
2021/10/05 09:53:50;;;;;;;;;;;24.30;44.50;;;;;;1536308;77;1772;-71
2021/10/05 09:55:52;;;;;;;;;;;24.30;44.60;;;;;;1538615;77;721;-70
2021/10/05 09:57:54;;;;;;;;;;;24.20;44.40;;;;;;1538163;77;1972;-71
2021/10/05 09:59:56;;;;;;;;;;;24.30;44.50;;;;;;1538963;77;757;-70
2021/10/05 10:01:58;;;;;;;;;;;24.20;44.40;;;;;;1561455;75;667;-70
2021/10/05 10:04:00;;;;;;;;;;;24.30;44.60;;;;;;1559428;76;1151;-71
2021/10/05 10:06:02;;;;;;;;;;;24.30;44.60;;;;;;1564627;75;805;-70
2021/10/05 10:08:04;;;;;;;;;;;24.30;44.70;;;;;;1538275;76;716;-70
2021/10/05 10:10:07;;;;;;;;;;;24.20;44.50;;;;;;1561787;75;735;-71
2021/10/05 10:12:09;;;;;;;;;;;24.30;44.70;;;;;;1564603;75;708;-69
2021/10/05 10:14:11;;;;;;;;;;;24.30;44.70;;;;;;1564904;75;1178;-70
2021/10/05 10:16:13;;;;;;;;;;;24.30;44.70;;;;;;1565038;75;804;-70
2021/10/05 10:18:15;;;;;;;;;;;24.20;44.40;;;;;;1563867;75;1943;-67
2021/10/05 10:20:22;;;;;;;;;;;24.20;44.40;;;;;;1564295;75;754;-69
2021/10/05 10:22:24;;;;;;;;;;;24.30;44.60;;;;;;1561377;75;1646;-70
2021/10/05 10:24:26;;;;;;;;;;;24.30;44.50;;;;;;1565242;75;1154;-70
2021/10/05 10:26:27;;;;;;;;;;;24.20;44.40;;;;;;1537709;76;790;-70
2021/10/05 10:28:37;;;;;;;;;;;24.30;44.60;;;;;;1565340;75;732;-72
2021/10/05 10:30:52;;;;;;;;;;;24.30;44.50;;;;;;1559295;75;1050;-70
2021/10/05 10:32:56;;;;;;;;;;;24.30;44.50;;;;;;1565163;75;709;-71
2021/10/05 10:35:05;;;;;;;;;;;24.30;44.60;;;;;;1564539;76;1155;-70
2021/10/05 10:37:14;;;;;;;;;;;24.20;44.40;;;;;;1554539;76;782;-70
2021/10/05 10:39:17;;;;;;;;;;;24.20;44.40;;;;;;1565553;76;789;-71
2021/10/05 10:41:20;;;;;;;;;;;24.30;44.60;;;;;;1561212;75;772;-72
2021/10/05 10:43:23;;;;;;;;;;;24.30;44.50;;;;;;1565517;75;1130;-71
2021/10/05 10:45:25;;;;;;;;;;;24.30;44.50;;;;;;1563955;75;732;-72
2021/10/05 10:47:28;;;;;;;;;;;24.30;44.40;;;;;;1565222;75;752;-72
2021/10/05 10:49:30;;;;;;;;;;;24.30;44.40;;;;;;1565537;75;731;-71
2021/10/05 10:51:34;;;;;;;;;;;24.30;44.50;;;;;;1565517;75;784;-71
2021/10/05 10:53:37;;;;;;;;;;;24.30;44.50;;;;;;1565455;75;1150;-71
2021/10/05 10:55:39;;;;;;;;;;;24.30;44.60;;;;;;1533796;76;891;-71
2021/10/05 10:57:42;;;;;;;;;;;24.30;44.60;;;;;;1565157;76;1935;-70
2021/10/05 10:59:44;;;;;;;;;;;24.20;44.40;;;;;;1555278;76;666;-71
2021/10/05 11:01:46;;;;;;;;;;;24.30;44.60;;;;;;1533310;77;743;-72
2021/10/05 11:03:48;;;;;;;;;;;24.30;44.60;;;;;;1559560;76;1088;-70
2021/10/05 11:05:50;;;;;;;;;;;24.30;44.60;;;;;;1555730;74;693;-72
2021/10/05 11:07:52;;;;;;;;;;;24.30;44.60;;;;;;1551536;76;872;-72
2021/10/05 11:09:54;;;;;;;;;;;24.30;44.60;;;;;;1551258;76;785;-71
2021/10/05 11:11:59;;;;;;;;;;;24.30;44.60;;;;;;1520455;78;1149;-72
2021/10/05 11:14:04;;;;;;;;;;;24.20;44.60;;;;;;1551415;77;1145;-71
2021/10/05 11:16:06;;;;;;;;;;;24.20;44.60;;;;;;1550956;76;733;-72
2021/10/05 11:18:09;;;;;;;;;;;24.30;44.70;;;;;;1551477;77;1923;-72
2021/10/05 11:20:11;;;;;;;;;;;24.30;44.70;;;;;;1551409;76;728;-72
2021/10/05 11:22:14;;;;;;;;;;;24.30;44.60;;;;;;1550960;77;718;-71
2021/10/05 11:24:16;;;;;;;;;;;24.20;44.50;;;;;;1547479;77;1127;-72
2021/10/05 11:26:21;;;;;;;;;;;24.30;44.70;;;;;;1535037;77;653;-72
2021/10/05 11:28:22;;;;;;;;;;;24.20;44.70;;;;;;1547693;76;1115;-71
2021/10/05 11:30:24;;;;;;;;;;;24.20;44.60;;;;;;1537586;76;738;-72
2021/10/05 11:32:26;;;;;;;;;;;24.20;44.60;;;;;;1537861;76;657;-71
2021/10/05 11:34:28;;;;;;;;;;;24.20;44.60;;;;;;1559911;75;1162;-72
2021/10/05 11:36:30;;;;;;;;;;;24.20;44.60;;;;;;1565603;76;694;-72
2021/10/05 11:38:42;;;;;;;;;;;24.30;44.70;;;;;;1531035;76;1945;-72
2021/10/05 11:40:52;;;;;;;;;;;24.20;44.60;;;;;;1536190;76;1875;-73
2021/10/05 11:42:53;;;;;;;;;;;24.30;44.70;;;;;;1560030;74;979;-71
2021/10/05 11:45:03;;;;;;;;;;;24.20;44.60;;;;;;1529386;76;1127;-71
2021/10/05 11:47:05;;;;;;;;;;;24.20;44.60;;;;;;1552136;76;1822;-72
2021/10/05 11:49:07;;;;;;;;;;;24.20;44.60;;;;;;1560704;75;785;-72
2021/10/05 11:51:09;;;;;;;;;;;24.20;44.70;;;;;;1524180;76;1141;-71
2021/10/05 11:53:11;;;;;;;;;;;24.20;44.70;;;;;;1532194;76;782;-72
2021/10/05 11:55:12;;;;;;;;;;;24.20;44.70;;;;;;1519353;77;1089;-71
2021/10/05 11:57:15;;;;;;;;;;;24.20;44.70;;;;;;1535986;76;654;-71
2021/10/05 11:59:24;;;;;;;;;;;24.20;44.70;;;;;;1535962;77;1920;-70
2021/10/05 12:01:27;;;;;;;;;;;24.30;44.70;;;;;;1561188;75;685;-71
2021/10/05 12:03:29;;;;;;;;;;;24.30;44.50;;;;;;1566102;76;1244;-71
2021/10/05 12:05:31;;;;;;;;;;;24.40;44.40;;;;;;1565573;75;672;-71
2021/10/05 12:07:33;;;;;;;;;;;24.30;44.40;;;;;;1565586;76;771;-72
2021/10/05 12:09:35;;;;;;;;;;;24.30;44.40;;;;;;1543483;76;1150;-71